createdAt,value
2019-02-25T00:00:56.455Z,101571.23
2019-02-25T00:03:22.611Z,101575.73
2019-02-25T00:05:48.806Z,101573.56
2019-02-25T00:08:14.975Z,101571.88
2019-02-25T00:10:41.136Z,101573.21
2019-02-25T00:13:07.449Z,101565.20
2019-02-25T00:15:33.614Z,101559.59
2019-02-25T00:17:59.764Z,101562.53
2019-02-25T00:20:25.955Z,101560.30
2019-02-25T00:22:52.113Z,101554.70
2019-02-25T00:25:18.266Z,101554.38
2019-02-25T00:27:44.457Z,101550.00
2019-02-25T00:30:12.341Z,101554.50
2019-02-25T00:32:38.490Z,101544.84
2019-02-25T00:35:05.043Z,101547.67
2019-02-25T00:37:31.203Z,101544.30
2019-02-25T00:39:57.375Z,101536.05
2019-02-25T00:42:23.568Z,101536.80
2019-02-25T00:44:49.828Z,101522.07
2019-02-25T00:47:16.092Z,101523.56
2019-02-25T00:49:42.400Z,101524.65
2019-02-25T00:52:08.651Z,101523.65
2019-02-25T00:54:34.802Z,101527.22
2019-02-25T00:57:01.175Z,101530.73
2019-02-25T00:59:27.433Z,101526.69
2019-02-25T01:01:53.697Z,101517.35
2019-02-25T01:04:19.901Z,101524.70
2019-02-25T01:06:46.058Z,101525.30
2019-02-25T01:09:12.219Z,101522.27
2019-02-25T01:11:38.406Z,101527.20
2019-02-25T01:14:04.666Z,101528.31
2019-02-25T01:16:30.923Z,101529.51
2019-02-25T01:18:57.117Z,101532.57
2019-02-25T01:21:23.271Z,101525.34
2019-02-25T01:23:49.423Z,101518.41
2019-02-25T01:26:15.604Z,101519.66
2019-02-25T01:28:41.874Z,101515.65
2019-02-25T01:31:08.038Z,101507.11
2019-02-25T01:33:34.234Z,101510.20
2019-02-25T01:36:00.499Z,101506.27
2019-02-25T01:38:26.657Z,101506.11
2019-02-25T01:40:52.841Z,101501.40
2019-02-25T01:43:19.154Z,101495.92
2019-02-25T01:45:45.405Z,101507.24
2019-02-25T01:48:11.592Z,101501.05
2019-02-25T01:50:37.794Z,101498.44
2019-02-25T01:53:03.951Z,101498.92
2019-02-25T01:55:30.141Z,101503.88
2019-02-25T01:57:56.407Z,101498.28
2019-02-25T02:00:22.562Z,101499.20
2019-02-25T02:02:48.762Z,101496.51
2019-02-25T02:05:14.919Z,101490.17
2019-02-25T02:07:41.171Z,101493.12
2019-02-25T02:10:12.420Z,101495.19
2019-02-25T02:12:38.570Z,101496.66
2019-02-25T02:15:29.340Z,101493.73
2019-02-25T02:17:55.519Z,101494.81
2019-02-25T02:20:21.786Z,101502.24
2019-02-25T02:22:47.975Z,101506.77
2019-02-25T02:25:14.122Z,101512.83
2019-02-25T02:27:40.281Z,101511.30
2019-02-25T02:30:15.237Z,101512.02
2019-02-25T02:32:41.385Z,101510.95
2019-02-25T02:35:07.552Z,101512.94
2019-02-25T02:37:33.761Z,101522.50
2019-02-25T02:39:59.913Z,101514.01
2019-02-25T02:42:26.074Z,101518.52
2019-02-25T02:44:53.462Z,101510.18
2019-02-25T02:47:35.303Z,101511.55
2019-02-25T02:50:09.866Z,101506.26
2019-02-25T02:52:36.079Z,101500.59
2019-02-25T02:55:02.631Z,101502.17
2019-02-25T02:57:28.930Z,101492.58
2019-02-25T02:59:55.090Z,101492.49
2019-02-25T03:02:21.259Z,101500.16
2019-02-25T03:04:47.438Z,101495.94
2019-02-25T03:07:13.696Z,101504.92
2019-02-25T03:09:39.857Z,101512.22
2019-02-25T03:12:06.139Z,101499.94
2019-02-25T03:14:32.296Z,101500.84
2019-02-25T03:16:58.458Z,101495.84
2019-02-25T03:19:24.743Z,101496.12
2019-02-25T03:21:50.905Z,101497.33
2019-02-25T03:24:17.068Z,101498.64
2019-02-25T03:26:43.254Z,101492.48
2019-02-25T03:29:09.408Z,101495.34
2019-02-25T03:31:35.573Z,101498.02
2019-02-25T03:34:01.893Z,101498.61
2019-02-25T03:36:28.028Z,101502.19
2019-02-25T03:38:54.293Z,101508.33
2019-02-25T03:41:20.483Z,101509.36
2019-02-25T03:43:46.636Z,101504.37
2019-02-25T03:46:12.793Z,101507.19
2019-02-25T03:48:38.991Z,101504.61
2019-02-25T03:51:05.155Z,101504.02
2019-02-25T03:53:32.389Z,101507.05
2019-02-25T03:55:58.571Z,101496.52
2019-02-25T03:58:25.126Z,101497.55
2019-02-25T04:00:51.279Z,101501.35
2019-02-25T04:03:17.471Z,101502.00
2019-02-25T04:05:43.749Z,101504.39
2019-02-25T04:08:09.885Z,101505.08
2019-02-25T04:10:36.093Z,101497.98
2019-02-25T04:13:02.249Z,101501.01
2019-02-25T04:15:33.049Z,101504.45
2019-02-25T04:17:59.239Z,101515.80
2019-02-25T04:20:25.508Z,101513.86
2019-02-25T04:22:51.673Z,101515.52
2019-02-25T04:25:17.960Z,101508.10
2019-02-25T04:27:44.119Z,101507.12
2019-02-25T04:30:13.903Z,101501.48
2019-02-25T04:32:40.105Z,101499.02
2019-02-25T04:35:08.419Z,101505.52
2019-02-25T04:37:34.585Z,101502.38
2019-02-25T04:40:00.787Z,101508.18
2019-02-25T04:42:26.948Z,101508.69
2019-02-25T04:44:53.099Z,101511.52
2019-02-25T04:47:19.297Z,101518.58
2019-02-25T04:49:45.539Z,101517.52
2019-02-25T04:52:11.704Z,101510.84
2019-02-25T04:54:37.949Z,101520.39
2019-02-25T04:57:04.102Z,101528.78
2019-02-25T04:59:30.260Z,101534.20
2019-02-25T05:01:56.655Z,101541.31
2019-02-25T05:04:22.845Z,101537.85
2019-02-25T05:06:48.997Z,101541.70
2019-02-25T05:09:15.287Z,101549.31
2019-02-25T05:11:41.457Z,101549.54
2019-02-25T05:14:07.617Z,101549.54
2019-02-25T05:16:33.917Z,101555.61
2019-02-25T05:19:00.065Z,101554.34
2019-02-25T05:21:26.248Z,101559.90
2019-02-25T05:23:52.467Z,101562.45
2019-02-25T05:26:18.631Z,101569.88
2019-02-25T05:28:44.787Z,101568.04
2019-02-25T05:31:10.984Z,101572.25
2019-02-25T05:33:37.131Z,101570.75
2019-02-25T05:36:03.284Z,101576.31
2019-02-25T05:38:29.586Z,101580.70
2019-02-25T05:40:55.755Z,101581.36
2019-02-25T05:43:21.915Z,101587.27
2019-02-25T05:45:48.212Z,101591.50
2019-02-25T05:48:14.723Z,101594.72
2019-02-25T05:50:40.887Z,101587.44
2019-02-25T05:53:07.081Z,101584.05
2019-02-25T05:55:33.274Z,101597.88
2019-02-25T05:57:59.859Z,101590.30
2019-02-25T06:00:33.082Z,101588.33
2019-02-25T06:02:59.238Z,101583.63
2019-02-25T06:05:25.397Z,101592.75
2019-02-25T06:07:51.612Z,101584.08
2019-02-25T06:10:17.776Z,101576.89
2019-02-25T06:12:44.036Z,101574.64
2019-02-25T06:15:12.930Z,101570.32
2019-02-25T06:17:39.213Z,101565.95
2019-02-25T06:20:10.823Z,101560.15
2019-02-25T06:22:37.005Z,101551.15
2019-02-25T06:25:05.460Z,101553.47
2019-02-25T06:27:31.628Z,101549.27
2019-02-25T06:29:57.951Z,101548.37
2019-02-25T06:32:24.120Z,101555.81
2019-02-25T06:34:50.287Z,101559.25
2019-02-25T06:37:16.488Z,101565.37
2019-02-25T06:39:42.643Z,101576.91
2019-02-25T06:42:08.904Z,101581.05
2019-02-25T06:44:35.235Z,101585.52
2019-02-25T06:47:01.370Z,101583.46
2019-02-25T06:49:27.538Z,101578.95
2019-02-25T06:51:53.747Z,101580.18
2019-02-25T06:54:19.907Z,101581.75
2019-02-25T06:56:46.188Z,101580.16
2019-02-25T06:59:12.487Z,101576.05
2019-02-25T07:01:38.657Z,101581.11
2019-02-25T07:04:06.734Z,101580.04
2019-02-25T07:06:51.330Z,101571.32
2019-02-25T07:09:28.100Z,101574.19
2019-02-25T07:11:56.202Z,101574.34
2019-02-25T07:14:42.236Z,101567.67
2019-02-25T07:17:10.400Z,101563.00
2019-02-25T07:19:41.055Z,101551.02
2019-02-25T07:22:09.112Z,101553.53
2019-02-25T07:24:39.718Z,101558.94
2019-02-25T07:27:10.622Z,101561.42
2019-02-25T07:29:55.004Z,101561.87
2019-02-25T07:32:25.884Z,101557.80
2019-02-25T07:34:59.906Z,101561.25
2019-02-25T07:37:44.625Z,101565.68
2019-02-25T07:40:12.717Z,101561.78
2019-02-25T07:42:52.821Z,101557.67
2019-02-25T07:45:29.938Z,101541.13
2019-02-25T07:48:00.669Z,101546.90
2019-02-25T07:50:31.495Z,101543.67
2019-02-25T07:53:02.373Z,101539.59
2019-02-25T07:55:30.427Z,101543.31
2019-02-25T07:58:10.273Z,101530.56
2019-02-25T08:00:50.160Z,101527.02
2019-02-25T08:03:27.011Z,101524.48
2019-02-25T08:05:57.594Z,101520.08
2019-02-25T08:08:31.267Z,101520.91
2019-02-25T08:10:59.361Z,101522.33
2019-02-25T08:13:27.413Z,101517.18
2019-02-25T08:16:04.154Z,101502.53
2019-02-25T08:18:43.857Z,101494.65
2019-02-25T08:21:24.245Z,101487.81
2019-02-25T08:23:55.076Z,101484.49
2019-02-25T08:26:39.761Z,101484.09
2019-02-25T08:29:14.164Z,101479.13
2019-02-25T08:31:57.419Z,101481.81
2019-02-25T08:34:41.874Z,101477.96
2019-02-25T08:37:19.229Z,101468.44
2019-02-25T08:39:59.548Z,101460.36
2019-02-25T08:42:31.099Z,101457.58
2019-02-25T08:45:02.168Z,101464.95
2019-02-25T08:47:30.352Z,101474.99
2019-02-25T08:49:56.752Z,101471.16
2019-02-25T08:52:22.936Z,101466.86
2019-02-25T08:54:49.102Z,101470.50
2019-02-25T08:57:15.369Z,101471.47
2019-02-25T08:59:41.591Z,101480.38
2019-02-25T09:02:07.760Z,101477.64
2019-02-25T09:04:34.987Z,101477.01
2019-02-25T09:07:01.144Z,101483.50
2019-02-25T09:09:27.313Z,101478.16
2019-02-25T09:11:53.512Z,101477.86
2019-02-25T09:14:19.773Z,101477.78
2019-02-25T09:16:45.939Z,101479.34
2019-02-25T09:19:12.143Z,101474.34
2019-02-25T09:21:38.299Z,101464.52
2019-02-25T09:24:04.559Z,101477.71
2019-02-25T09:26:30.750Z,101470.95
2019-02-25T09:28:57.447Z,101473.28
2019-02-25T09:31:23.871Z,101472.07
2019-02-25T09:33:50.158Z,101461.47
2019-02-25T09:36:16.323Z,101459.90
2019-02-25T09:38:42.580Z,101466.30
2019-02-25T09:41:08.877Z,101470.73
2019-02-25T09:43:35.032Z,101473.34
2019-02-25T09:46:01.212Z,101465.41
2019-02-25T09:48:27.405Z,101467.70
2019-02-25T09:50:53.670Z,101472.89
2019-02-25T09:53:19.835Z,101487.77
2019-02-25T09:55:46.019Z,101478.45
2019-02-25T09:58:12.189Z,101477.67
2019-02-25T10:00:38.491Z,101470.79
2019-02-25T10:03:04.687Z,101474.73
2019-02-25T10:05:30.850Z,101464.47
2019-02-25T10:07:57.003Z,101450.95
2019-02-25T10:10:23.207Z,101452.69
2019-02-25T10:12:49.464Z,101460.63
2019-02-25T10:15:26.311Z,101445.59
2019-02-25T10:17:52.465Z,101436.21
2019-02-25T10:20:18.637Z,101420.52
2019-02-25T10:22:44.861Z,101422.72
2019-02-25T10:25:11.004Z,101422.70
2019-02-25T10:27:37.160Z,101423.28
2019-02-25T10:30:06.751Z,101417.61
2019-02-25T10:32:32.906Z,101417.72
2019-02-25T10:34:59.197Z,101414.10
2019-02-25T10:37:25.384Z,101402.55
2019-02-25T10:39:51.892Z,101399.37
2019-02-25T10:42:18.048Z,101405.95
2019-02-25T10:44:44.255Z,101404.89
2019-02-25T10:47:10.942Z,101397.98
2019-02-25T10:49:38.569Z,101395.64
2019-02-25T10:52:06.564Z,101385.80
2019-02-25T10:54:32.912Z,101381.79
2019-02-25T10:56:59.074Z,101383.72
2019-02-25T10:59:25.255Z,101379.73
2019-02-25T11:01:51.459Z,101360.20
2019-02-25T11:04:19.532Z,101359.56
2019-02-25T11:06:45.720Z,101363.13
2019-02-25T11:09:22.962Z,101353.80
2019-02-25T11:11:50.601Z,101342.19
2019-02-25T11:14:17.313Z,101340.91
2019-02-25T11:16:44.072Z,101336.56
2019-02-25T11:19:11.671Z,101335.55
2019-02-25T11:21:39.807Z,101340.36
2019-02-25T11:24:06.292Z,101344.96
2019-02-25T11:26:33.414Z,101336.03
2019-02-25T11:29:00.552Z,101339.91
2019-02-25T11:31:29.023Z,101314.75
2019-02-25T11:33:56.486Z,101316.13
2019-02-25T11:36:22.983Z,101307.01
2019-02-25T11:38:49.149Z,101311.31
2019-02-25T11:41:15.336Z,101317.51
2019-02-25T11:43:43.357Z,101309.43
2019-02-25T11:46:09.757Z,101299.31
2019-02-25T11:48:35.950Z,101303.80
2019-02-25T11:51:02.219Z,101292.92
2019-02-25T11:53:28.381Z,101280.78
2019-02-25T11:55:54.663Z,101286.21
2019-02-25T11:58:20.833Z,101289.00
2019-02-25T12:00:47.092Z,101286.02
2019-02-25T12:03:13.331Z,101286.75
2019-02-25T12:05:39.496Z,101276.84
2019-02-25T12:08:05.650Z,101268.36
2019-02-25T12:10:31.851Z,101254.58
2019-02-25T12:12:58.106Z,101257.34
2019-02-25T12:15:24.260Z,101250.77
2019-02-25T12:17:52.270Z,101256.82
2019-02-25T12:20:18.634Z,101249.63
2019-02-25T12:22:44.792Z,101247.15
2019-02-25T12:25:19.653Z,101248.52
2019-02-25T12:27:45.814Z,101248.79
2019-02-25T12:30:20.612Z,101260.00
2019-02-25T12:32:46.811Z,101255.94
2019-02-25T12:35:12.971Z,101258.65
2019-02-25T12:37:39.127Z,101268.72
2019-02-25T12:40:10.604Z,101257.21
2019-02-25T12:42:36.759Z,101250.48
2019-02-25T12:45:05.119Z,101241.03
2019-02-25T12:47:31.406Z,101245.56
2019-02-25T12:49:57.554Z,101245.02
2019-02-25T12:52:23.710Z,101244.61
2019-02-25T12:54:49.914Z,101244.63
2019-02-25T12:57:16.075Z,101241.61
2019-02-25T12:59:42.227Z,101238.88
2019-02-25T13:02:08.413Z,101236.59
2019-02-25T13:04:34.703Z,101227.85
2019-02-25T13:07:00.854Z,101235.66
2019-02-25T13:09:27.146Z,101231.90
2019-02-25T13:11:53.324Z,101234.88
2019-02-25T13:14:19.472Z,101219.08
2019-02-25T13:16:45.672Z,101221.44
2019-02-25T13:19:13.631Z,101218.36
2019-02-25T13:21:39.925Z,101218.46
2019-02-25T13:24:07.479Z,101207.20
2019-02-25T13:26:34.390Z,101204.59
2019-02-25T13:29:02.251Z,101193.36
2019-02-25T13:31:28.446Z,101193.00
2019-02-25T13:33:54.743Z,101189.63
2019-02-25T13:36:20.994Z,101185.83
2019-02-25T13:38:47.189Z,101177.77
2019-02-25T13:41:13.611Z,101172.20
2019-02-25T13:43:39.766Z,101165.03
2019-02-25T13:46:05.955Z,101162.13
2019-02-25T13:48:32.119Z,101164.27
2019-02-25T13:50:58.934Z,101154.12
2019-02-25T13:53:25.254Z,101150.47
2019-02-25T13:55:51.512Z,101146.86
2019-02-25T13:58:17.769Z,101150.02
2019-02-25T14:00:44.284Z,101149.02
2019-02-25T14:03:10.449Z,101157.67
2019-02-25T14:05:36.882Z,101151.11
2019-02-25T14:08:03.170Z,101140.75
2019-02-25T14:10:29.334Z,101135.97
2019-02-25T14:12:55.505Z,101130.27
2019-02-25T14:15:22.604Z,101129.48
2019-02-25T14:17:48.859Z,101142.76
2019-02-25T14:20:17.219Z,101145.14
2019-02-25T14:22:43.622Z,101142.10
2019-02-25T14:25:12.547Z,101139.70
2019-02-25T14:27:38.837Z,101136.22
2019-02-25T14:30:09.411Z,101133.76
2019-02-25T14:32:35.809Z,101132.04
2019-02-25T14:35:02.267Z,101129.10
2019-02-25T14:37:28.462Z,101112.48
2019-02-25T14:39:56.361Z,101109.30
2019-02-25T14:42:23.749Z,101104.86
2019-02-25T14:44:52.152Z,101111.95
2019-02-25T14:47:22.264Z,101103.57
2019-02-25T14:49:47.009Z,101109.33
2019-02-25T14:52:13.230Z,101112.30
2019-02-25T14:54:39.387Z,101100.16
2019-02-25T14:57:05.640Z,101099.15
2019-02-25T14:59:31.823Z,101096.23
2019-02-25T15:01:59.237Z,101097.03
2019-02-25T15:04:26.147Z,101103.60
2019-02-25T15:06:52.392Z,101094.20
2019-02-25T15:09:18.651Z,101088.55
2019-02-25T15:11:44.816Z,101092.76
2019-02-25T15:14:12.736Z,101092.09
2019-02-25T15:16:39.132Z,101092.30
2019-02-25T15:19:05.447Z,101077.84
2019-02-25T15:21:31.660Z,101074.33
2019-02-25T15:24:00.051Z,101073.66
2019-02-25T15:26:27.679Z,101056.92
2019-02-25T15:28:56.669Z,101061.97
2019-02-25T15:31:22.435Z,101061.66
2019-02-25T15:33:49.118Z,101040.53
2019-02-25T15:36:17.584Z,101050.27
2019-02-25T15:38:43.502Z,101056.37
2019-02-25T15:41:11.284Z,101040.27
2019-02-25T15:43:37.723Z,101045.05
2019-02-25T15:46:04.380Z,101045.38
2019-02-25T15:48:30.936Z,101041.36
2019-02-25T15:51:00.793Z,101042.22
2019-02-25T15:53:26.779Z,101027.03
2019-02-25T15:55:53.138Z,101031.73
2019-02-25T15:58:19.443Z,101023.64
2019-02-25T16:00:46.291Z,101019.18
2019-02-25T16:03:13.747Z,101019.34
2019-02-25T16:05:40.744Z,101019.70
2019-02-25T16:08:09.743Z,101012.97
2019-02-25T16:10:36.404Z,101007.56
2019-02-25T16:13:05.959Z,101009.60
2019-02-25T16:15:31.556Z,101014.02
2019-02-25T16:17:57.841Z,101016.09
2019-02-25T16:20:25.634Z,101013.81
2019-02-25T16:22:51.997Z,101006.67
2019-02-25T16:25:20.574Z,101008.58
2019-02-25T16:27:49.875Z,101014.48
2019-02-25T16:30:16.917Z,101017.56
2019-02-25T16:32:44.581Z,101015.03
2019-02-25T16:35:13.010Z,101015.23
2019-02-25T16:37:39.463Z,101015.41
2019-02-25T16:40:14.106Z,101018.81
2019-02-25T16:42:41.537Z,101013.87
2019-02-25T16:45:23.554Z,101010.66
2019-02-25T16:47:49.835Z,100998.83
2019-02-25T16:50:16.944Z,100999.11
2019-02-25T16:52:45.563Z,101008.23
2019-02-25T16:55:15.608Z,101006.86
2019-02-25T16:57:43.479Z,100995.52
2019-02-25T17:00:12.980Z,100991.94
2019-02-25T17:02:40.570Z,100982.02
2019-02-25T17:05:07.526Z,100975.84
2019-02-25T17:07:33.771Z,100970.94
2019-02-25T17:10:00.819Z,100973.41
2019-02-25T17:12:29.566Z,100976.55
2019-02-25T17:14:55.981Z,100971.58
2019-02-25T17:17:22.785Z,100977.28
2019-02-25T17:19:51.481Z,100975.36
2019-02-25T17:22:18.515Z,100963.45
2019-02-25T17:24:44.701Z,100966.84
2019-02-25T17:27:11.884Z,100964.72
2019-02-25T17:29:39.417Z,100961.52
2019-02-25T17:32:06.725Z,100957.34
2019-02-25T17:34:34.394Z,100956.44
2019-02-25T17:37:01.138Z,100943.92
2019-02-25T17:39:28.948Z,100945.27
2019-02-25T17:41:57.189Z,100937.55
2019-02-25T17:44:27.877Z,100930.77
2019-02-25T17:46:51.760Z,100938.45
2019-02-25T17:49:19.169Z,100939.83
2019-02-25T17:51:45.589Z,100942.06
2019-02-25T17:54:12.422Z,100934.41
2019-02-25T17:56:40.874Z,100936.58
2019-02-25T17:59:09.713Z,100929.41
2019-02-25T18:01:36.210Z,100927.00
2019-02-25T18:04:04.317Z,100927.30
2019-02-25T18:06:31.935Z,100917.27
2019-02-25T18:08:59.938Z,100907.38
2019-02-25T18:11:27.130Z,100905.66
2019-02-25T18:13:55.157Z,100906.77
2019-02-25T18:16:21.477Z,100905.28
2019-02-25T18:18:50.638Z,100898.64
2019-02-25T18:21:16.597Z,100888.47
2019-02-25T18:23:42.902Z,100880.06
2019-02-25T18:26:09.065Z,100881.70
2019-02-25T18:28:37.408Z,100870.63
2019-02-25T18:31:04.423Z,100864.55
2019-02-25T18:33:31.606Z,100863.95
2019-02-25T18:36:00.205Z,100869.61
2019-02-25T18:38:27.326Z,100888.77
2019-02-25T18:40:54.135Z,100880.69
2019-02-25T18:43:22.010Z,100882.26
2019-02-25T18:45:48.496Z,100878.05
2019-02-25T18:48:14.642Z,100883.20
2019-02-25T18:50:40.905Z,100877.90
2019-02-25T18:53:07.200Z,100878.21
2019-02-25T18:55:34.184Z,100874.17
2019-02-25T18:58:01.041Z,100877.97
2019-02-25T19:00:30.831Z,100882.55
2019-02-25T19:02:58.305Z,100881.14
2019-02-25T19:05:27.661Z,100883.28
2019-02-25T19:07:55.587Z,100893.30
2019-02-25T19:10:24.669Z,100895.52
2019-02-25T19:12:58.802Z,100892.17
2019-02-25T19:15:34.563Z,100895.88
2019-02-25T19:18:06.950Z,100908.75
2019-02-25T19:20:34.813Z,100905.14
2019-02-25T19:23:03.229Z,100901.27
2019-02-25T19:25:33.769Z,100901.38
2019-02-25T19:28:03.126Z,100899.16
2019-02-25T19:30:39.037Z,100899.80
2019-02-25T19:33:10.983Z,100897.53
2019-02-25T19:35:35.271Z,100888.20
2019-02-25T19:38:07.556Z,100882.45
2019-02-25T19:40:33.738Z,100881.14
2019-02-25T19:43:03.704Z,100875.15
2019-02-25T19:45:28.647Z,100873.77
2019-02-25T19:47:57.254Z,100884.45
2019-02-25T19:50:23.020Z,100869.33
2019-02-25T19:52:49.166Z,100854.16
2019-02-25T19:55:17.739Z,100844.70
2019-02-25T19:57:43.629Z,100846.73
2019-02-25T20:00:22.492Z,100840.83
2019-02-25T20:02:48.501Z,100836.11
2019-02-25T20:05:19.138Z,100829.87
2019-02-25T20:07:45.290Z,100821.68
2019-02-25T20:10:13.686Z,100825.69
2019-02-25T20:12:39.715Z,100827.48
2019-02-25T20:15:11.366Z,100824.81
2019-02-25T20:17:37.813Z,100818.63
2019-02-25T20:20:08.150Z,100818.86
2019-02-25T20:22:36.627Z,100810.76
2019-02-25T20:25:05.637Z,100812.23
2019-02-25T20:27:32.094Z,100820.17
2019-02-25T20:30:00.104Z,100828.52
2019-02-25T20:32:26.577Z,100822.39
2019-02-25T20:34:54.479Z,100827.48
2019-02-25T20:37:22.769Z,100825.77
2019-02-25T20:39:48.997Z,100826.95
2019-02-25T20:42:21.459Z,100829.72
2019-02-25T20:44:43.346Z,100832.41
2019-02-25T20:47:09.606Z,100821.97
2019-02-25T20:49:35.780Z,100816.95
2019-02-25T20:52:01.974Z,100816.95
2019-02-25T20:54:28.238Z,100811.47
2019-02-25T20:56:55.496Z,100809.97
2019-02-25T20:59:23.466Z,100809.45
2019-02-25T21:01:51.120Z,100815.36
2019-02-25T21:04:20.098Z,100825.02
2019-02-25T21:06:46.208Z,100824.20
2019-02-25T21:09:12.368Z,100828.14
2019-02-25T21:11:38.524Z,100824.08
2019-02-25T21:14:04.743Z,100822.41
2019-02-25T21:16:33.090Z,100817.02
2019-02-25T21:18:59.124Z,100818.37
2019-02-25T21:21:25.413Z,100812.83
2019-02-25T21:23:51.570Z,100815.48
2019-02-25T21:26:17.732Z,100814.23
2019-02-25T21:28:44.024Z,100820.92
2019-02-25T21:31:13.696Z,100811.48
2019-02-25T21:33:38.351Z,100817.71
2019-02-25T21:36:04.538Z,100818.12
2019-02-25T21:38:30.712Z,100828.38
2019-02-25T21:40:56.983Z,100816.65
2019-02-25T21:43:26.124Z,100816.17
2019-02-25T21:45:52.243Z,100815.16
2019-02-25T21:48:21.131Z,100810.81
2019-02-25T21:50:47.389Z,100800.62
2019-02-25T21:53:15.901Z,100802.97
2019-02-25T21:55:41.604Z,100792.67
2019-02-25T21:58:07.806Z,100800.61
2019-02-25T22:00:36.901Z,100789.66
2019-02-25T22:03:02.033Z,100784.98
2019-02-25T22:05:28.221Z,100784.50
2019-02-25T22:07:56.860Z,100791.13
2019-02-25T22:10:22.431Z,100786.88
2019-02-25T22:12:48.617Z,100795.08
2019-02-25T22:15:18.023Z,100799.08
2019-02-25T22:17:48.329Z,100802.16
2019-02-25T22:20:16.652Z,100800.45
2019-02-25T22:22:43.043Z,100797.16
2019-02-25T22:25:14.043Z,100791.64
2019-02-25T22:27:41.649Z,100792.28
2019-02-25T22:30:13.533Z,100788.30
2019-02-25T22:32:40.794Z,100788.42
2019-02-25T22:35:10.512Z,100775.80
2019-02-25T22:37:37.332Z,100769.19
2019-02-25T22:40:10.299Z,100772.51
2019-02-25T22:42:37.595Z,100776.69
2019-02-25T22:45:08.305Z,100771.53
2019-02-25T22:47:35.177Z,100776.36
2019-02-25T22:50:01.459Z,100791.28
2019-02-25T22:52:29.258Z,100783.86
2019-02-25T22:54:55.683Z,100780.45
2019-02-25T22:57:23.177Z,100771.71
2019-02-25T22:59:51.101Z,100764.27
2019-02-25T23:02:17.380Z,100765.87
2019-02-25T23:04:45.092Z,100757.91
2019-02-25T23:07:13.065Z,100760.20
2019-02-25T23:09:41.350Z,100761.58
2019-02-25T23:12:07.907Z,100755.67
2019-02-25T23:14:35.826Z,100748.01
2019-02-25T23:17:04.898Z,100752.19
2019-02-25T23:19:39.190Z,100756.13
2019-02-25T23:22:05.315Z,100737.75
2019-02-25T23:24:34.779Z,100740.98
2019-02-25T23:26:59.704Z,100754.29
2019-02-25T23:29:28.452Z,100751.58
2019-02-25T23:31:53.892Z,100754.02
2019-02-25T23:34:20.881Z,100753.88
2019-02-25T23:36:49.418Z,100743.36
2019-02-25T23:39:17.668Z,100743.29
2019-02-25T23:41:46.230Z,100739.60
2019-02-25T23:44:13.260Z,100735.42
2019-02-25T23:46:40.304Z,100730.53
2019-02-25T23:49:06.500Z,100730.44
2019-02-25T23:51:32.658Z,100731.02
2019-02-25T23:53:58.923Z,100734.36
2019-02-25T23:56:27.284Z,100725.32
2019-02-25T23:58:53.963Z,100718.86
